Time;durP1;ratioP1;P1;durP2;ratioP2;P2;SDS_P1;SDS_P2;PMS_P1;PMS_P2;Temp;Humidity;BMP_temperature;BMP_pressure;BME280_temperature;BME280_humidity;BME280_pressure;Samples;Min_cycle;Max_cycle;Signal;HPM_P1;HPM_P2
2022/08/27 00:00:33;;;;;;;1.00;0.20;;;18.40;99.90;;;;;;4912937;29;20028;-73
2022/08/27 00:03:01;;;;;;;1.98;0.20;;;18.40;99.90;;;;;;4917083;29;20036;-72
2022/08/27 00:05:28;;;;;;;1.45;0.20;;;18.40;99.90;;;;;;4914891;29;20032;-73
2022/08/27 00:07:56;;;;;;;0.73;0.20;;;18.40;99.90;;;;;;4902115;29;20033;-74
2022/08/27 00:10:26;;;;;;;0.43;0.30;;;18.60;99.90;;;;;;4901028;29;20143;-73
2022/08/27 00:12:55;;;;;;;2.28;0.43;;;18.90;99.90;;;;;;4917297;29;20036;-73
2022/08/27 00:15:23;;;;;;;2.85;0.40;;;19.30;99.90;;;;;;4915042;29;20030;-73
2022/08/27 00:17:52;;;;;;;1.38;0.40;;;19.40;99.90;;;;;;4913765;29;20510;-73
2022/08/27 00:20:22;;;;;;;0.63;0.45;;;19.60;99.90;;;;;;4915065;29;20047;-73
2022/08/27 00:22:49;;;;;;;0.70;0.40;;;20.00;99.90;;;;;;4916873;29;20108;-73
2022/08/27 00:25:17;;;;;;;2.20;0.40;;;20.80;99.90;;;;;;4913714;29;20039;-73
2022/08/27 00:27:45;;;;;;;0.68;0.50;;;21.50;99.20;;;;;;4898090;29;20092;-72
2022/08/27 00:30:17;;;;;;;1.13;0.30;;;21.50;98.80;;;;;;4912974;29;20106;-74
2022/08/27 00:32:45;;;;;;;1.65;0.28;;;21.40;98.60;;;;;;4916893;29;20455;-74
2022/08/27 00:35:14;;;;;;;1.85;0.50;;;21.40;98.50;;;;;;4915060;29;20040;-74
2022/08/27 00:37:43;;;;;;;1.83;0.40;;;21.00;98.60;;;;;;4916769;29;20031;-74
2022/08/27 00:40:16;;;;;;;1.77;0.30;;;20.70;99.20;;;;;;4913914;29;20086;-75
2022/08/27 00:42:44;;;;;;;0.75;0.20;;;20.40;98.70;;;;;;4916641;29;20142;-75
2022/08/27 00:45:14;;;;;;;0.80;0.30;;;20.30;99.50;;;;;;4914534;29;20041;-75
2022/08/27 00:47:49;;;;;;;1.13;0.35;;;20.30;99.00;;;;;;4935315;29;20020;-75
2022/08/27 00:50:24;;;;;;;3.55;0.82;;;20.70;99.40;;;;;;4929311;29;20104;-75
2022/08/27 00:53:01;;;;;;;1.02;0.30;;;21.00;99.10;;;;;;4916434;29;20052;-76
2022/08/27 00:55:38;;;;;;;0.95;0.25;;;21.20;99.20;;;;;;4914781;29;20040;-73
2022/08/27 00:58:28;;;;;;;1.17;0.25;;;21.50;97.80;;;;;;4916089;29;20035;-75
2022/08/27 01:00:56;;;;;;;1.25;0.30;;;21.10;97.20;;;;;;4901572;29;20118;-75
2022/08/27 01:03:25;;;;;;;0.47;0.45;;;20.60;98.20;;;;;;4917201;29;20527;-75
2022/08/27 01:05:55;;;;;;;0.82;0.20;;;20.30;99.20;;;;;;4914956;29;20047;-75
2022/08/27 01:08:27;;;;;;;2.85;0.30;;;19.80;99.30;;;;;;4914861;29;20032;-76
2022/08/27 01:10:57;;;;;;;0.28;0.20;;;19.40;99.70;;;;;;4905034;29;20044;-76
2022/08/27 01:13:30;;;;;;;0.63;0.47;;;19.10;99.80;;;;;;4897234;29;20049;-75
2022/08/27 01:15:59;;;;;;;1.35;0.10;;;18.80;99.90;;;;;;4901331;29;20105;-75
2022/08/27 01:18:33;;;;;;;0.52;0.20;;;18.80;99.90;;;;;;4916080;29;20079;-76
2022/08/27 01:21:06;;;;;;;1.08;0.28;;;18.90;99.90;;;;;;4914603;29;20115;-77
2022/08/27 01:23:47;;;;;;;1.00;0.20;;;19.10;99.80;;;;;;4915720;29;20055;-76
2022/08/27 01:26:16;;;;;;;0.50;0.00;;;19.30;99.50;;;;;;4914000;29;20039;-75
2022/08/27 01:28:44;;;;;;;0.38;0.10;;;19.40;99.20;;;;;;4898532;29;20464;-76
2022/08/27 01:31:12;;;;;;;0.22;0.10;;;19.40;99.10;;;;;;4913763;29;20099;-76
2022/08/27 01:33:40;;;;;;;0.20;0.10;;;19.50;99.60;;;;;;4900815;29;20072;-76
2022/08/27 01:36:08;;;;;;;0.57;0.10;;;19.60;99.90;;;;;;4905770;29;20475;-77
2022/08/27 01:38:35;;;;;;;0.30;0.10;;;19.50;99.20;;;;;;4933981;29;20111;-77
2022/08/27 01:41:03;;;;;;;0.55;0.25;;;19.50;99.40;;;;;;4922422;29;20039;-77
2022/08/27 01:43:30;;;;;;;3.88;0.73;;;19.50;99.00;;;;;;4915833;29;20034;-76
2022/08/27 01:45:58;;;;;;;0.50;0.10;;;19.60;98.80;;;;;;4913464;29;20040;-76
2022/08/27 01:48:26;;;;;;;1.63;0.20;;;19.60;99.00;;;;;;4915175;29;20120;-74
2022/08/27 01:50:53;;;;;;;0.82;0.20;;;19.80;98.80;;;;;;4913372;29;20548;-73
2022/08/27 01:53:24;;;;;;;0.20;0.10;;;20.00;98.60;;;;;;4915195;29;20088;-74
2022/08/27 01:55:53;;;;;;;1.10;0.20;;;20.80;98.10;;;;;;4912620;29;20115;-74
2022/08/27 01:58:24;;;;;;;0.47;0.10;;;21.60;97.10;;;;;;4914445;29;20556;-75
2022/08/27 02:00:55;;;;;;;0.63;0.35;;;22.80;97.60;;;;;;4906863;29;20040;-74
2022/08/27 02:03:23;;;;;;;0.32;0.10;;;23.80;94.50;;;;;;4914994;29;20031;-75
2022/08/27 02:05:50;;;;;;;0.43;0.10;;;24.60;94.10;;;;;;4913196;29;20115;-75
2022/08/27 02:08:22;;;;;;;1.00;0.10;;;25.00;93.70;;;;;;4913101;29;20042;-76
2022/08/27 02:10:51;;;;;;;0.65;0.05;;;23.80;93.20;;;;;;4911608;29;20047;-74
2022/08/27 02:13:18;;;;;;;0.85;0.00;;;22.70;94.00;;;;;;4914157;29;20080;-75
2022/08/27 02:15:46;;;;;;;0.15;0.00;;;21.80;94.60;;;;;;4907024;29;20027;-74
2022/08/27 02:18:14;;;;;;;0.80;0.10;;;21.90;95.00;;;;;;4909345;29;21524;-75
2022/08/27 02:20:44;;;;;;;1.83;0.38;;;22.80;94.80;;;;;;4911136;29;20119;-74
2022/08/27 02:23:12;;;;;;;0.65;0.22;;;23.10;94.10;;;;;;4913443;29;20036;-74
2022/08/27 02:25:40;;;;;;;0.60;0.55;;;22.60;93.80;;;;;;4912313;29;20024;-75
2022/08/27 02:28:08;;;;;;;0.10;0.10;;;22.20;93.70;;;;;;4912127;29;20043;-76
2022/08/27 02:30:36;;;;;;;0.10;0.10;;;21.70;93.80;;;;;;4909861;29;20143;-75
2022/08/27 02:33:05;;;;;;;0.30;0.10;;;21.10;94.60;;;;;;4912436;29;20040;-75
2022/08/27 02:35:37;;;;;;;0.35;0.10;;;20.90;94.80;;;;;;4911279;29;20039;-74
2022/08/27 02:38:05;;;;;;;0.20;0.10;;;20.80;95.10;;;;;;4912572;29;20512;-75
2022/08/27 02:40:33;;;;;;;1.58;0.10;;;20.60;95.70;;;;;;4910731;29;20328;-74
2022/08/27 02:43:00;;;;;;;0.90;0.20;;;20.20;96.60;;;;;;4913013;29;20459;-74
2022/08/27 02:45:28;;;;;;;0.40;0.32;;;20.10;96.20;;;;;;4912017;29;20040;-74
2022/08/27 02:47:55;;;;;;;0.20;0.10;;;19.80;96.80;;;;;;4913540;29;20443;-74
2022/08/27 02:50:22;;;;;;;0.90;0.17;;;19.30;97.40;;;;;;4911798;29;20128;-75
2022/08/27 02:52:50;;;;;;;0.17;0.10;;;18.80;98.50;;;;;;4914121;29;20036;-74
2022/08/27 02:55:17;;;;;;;0.30;0.10;;;18.40;99.20;;;;;;4912354;29;20039;-74
2022/08/27 02:57:45;;;;;;;0.30;0.00;;;18.10;99.30;;;;;;4914527;29;20064;-74
2022/08/27 03:00:16;;;;;;;0.20;0.00;;;17.90;99.80;;;;;;4912934;29;20122;-74
2022/08/27 03:02:44;;;;;;;0.00;0.00;;;17.80;99.90;;;;;;4898197;29;20452;-76
2022/08/27 03:05:12;;;;;;;0.25;0.05;;;17.70;99.70;;;;;;4912512;29;20048;-74
2022/08/27 03:07:41;;;;;;;0.00;0.00;;;17.60;99.60;;;;;;4914570;29;20028;-75
2022/08/27 03:10:10;;;;;;;0.00;0.00;;;17.40;99.90;;;;;;4895085;29;20052;-75
2022/08/27 03:12:38;;;;;;;0.00;0.00;;;17.40;99.90;;;;;;4914095;29;20024;-74
2022/08/27 03:15:07;;;;;;;1.15;0.30;;;17.40;99.90;;;;;;4912905;29;20127;-74
2022/08/27 03:20:21;;;;;;;2.90;0.93;;;17.30;99.90;;;;;;4911255;29;20095;-75
2022/08/27 03:22:49;;;;;;;3.10;0.55;;;17.30;99.90;;;;;;4902565;29;20088;-73
2022/08/27 03:25:16;;;;;;;5.88;0.60;;;17.20;99.90;;;;;;4897940;29;20491;-74
2022/08/27 03:27:44;;;;;;;0.75;0.47;;;17.10;99.90;;;;;;4914284;29;20036;-76
2022/08/27 03:30:17;;;;;;;1.30;0.30;;;16.90;99.90;;;;;;4912582;29;20107;-76
2022/08/27 03:32:45;;;;;;;1.30;0.20;;;16.90;99.90;;;;;;4914286;29;20055;-74
2022/08/27 03:35:13;;;;;;;0.82;0.60;;;16.90;99.90;;;;;;4914954;29;20039;-75
2022/08/27 03:37:41;;;;;;;1.58;0.93;;;17.00;99.90;;;;;;4917976;29;20028;-73
2022/08/27 03:40:09;;;;;;;3.13;1.13;;;17.00;99.90;;;;;;4916294;29;20039;-74
2022/08/27 03:42:37;;;;;;;2.75;0.38;;;17.20;99.90;;;;;;4917257;29;20098;-75
2022/08/27 03:45:07;;;;;;;0.68;0.25;;;17.20;99.90;;;;;;4916585;29;20151;-75
2022/08/27 03:47:36;;;;;;;0.20;0.20;;;17.30;99.90;;;;;;4918019;29;20039;-76
2022/08/27 03:50:05;;;;;;;0.63;0.30;;;17.40;99.90;;;;;;4915966;29;20058;-73
2022/08/27 03:52:34;;;;;;;1.67;0.28;;;17.50;99.90;;;;;;4918535;29;20027;-74
2022/08/27 03:55:03;;;;;;;0.22;0.10;;;17.60;99.90;;;;;;4915769;29;20035;-75
2022/08/27 03:57:31;;;;;;;1.75;0.63;;;17.60;99.90;;;;;;4918166;29;20024;-76
2022/08/27 04:00:00;;;;;;;0.98;0.40;;;17.70;99.90;;;;;;4915652;29;20612;-76
2022/08/27 04:02:27;;;;;;;2.47;0.47;;;17.70;99.90;;;;;;4910291;29;20041;-75
2022/08/27 04:04:56;;;;;;;1.05;0.60;;;17.70;99.90;;;;;;4898685;29;20048;-73
2022/08/27 04:07:24;;;;;;;2.05;0.40;;;17.70;99.90;;;;;;4898600;29;20495;-74
2022/08/27 04:09:51;;;;;;;0.80;0.28;;;17.80;99.90;;;;;;4910652;29;20131;-74
2022/08/27 04:12:18;;;;;;;1.45;0.30;;;17.80;99.90;;;;;;4916833;29;20032;-74
2022/08/27 04:14:46;;;;;;;1.38;0.57;;;17.90;99.90;;;;;;4916234;29;20028;-74
2022/08/27 04:17:13;;;;;;;0.80;0.47;;;18.00;99.90;;;;;;4916713;29;20029;-77
2022/08/27 04:19:41;;;;;;;4.65;0.43;;;18.10;99.90;;;;;;4917364;29;20059;-74
2022/08/27 04:22:08;;;;;;;1.10;0.40;;;18.10;99.90;;;;;;4911187;29;20630;-75
2022/08/27 04:24:37;;;;;;;0.82;0.20;;;18.20;99.90;;;;;;4916846;29;20090;-73
2022/08/27 04:27:05;;;;;;;0.95;0.40;;;18.40;99.90;;;;;;4915748;29;20261;-73
2022/08/27 04:29:33;;;;;;;2.72;0.43;;;18.40;99.90;;;;;;4916833;29;20395;-75
2022/08/27 04:32:00;;;;;;;1.23;0.30;;;18.60;99.90;;;;;;4914505;29;20484;-76
2022/08/27 04:34:28;;;;;;;0.60;0.20;;;18.80;99.90;;;;;;4916911;29;20020;-75
2022/08/27 04:36:57;;;;;;;2.35;1.13;;;19.50;99.90;;;;;;4914512;29;20103;-73
2022/08/27 04:39:26;;;;;;;2.63;0.30;;;20.10;99.90;;;;;;4916881;29;20024;-74
2022/08/27 04:41:55;;;;;;;1.00;0.30;;;20.10;99.90;;;;;;4914469;29;20160;-76
2022/08/27 04:44:24;;;;;;;1.75;0.20;;;19.90;99.90;;;;;;4917162;29;20068;-74
2022/08/27 04:46:57;;;;;;;0.85;0.47;;;19.80;99.90;;;;;;4913850;29;20036;-75
2022/08/27 04:49:25;;;;;;;0.93;0.20;;;19.80;99.90;;;;;;4916581;29;20043;-73
2022/08/27 04:51:54;;;;;;;0.32;0.15;;;19.60;99.90;;;;;;4914803;29;20036;-72
2022/08/27 04:54:23;;;;;;;0.47;0.10;;;19.50;99.90;;;;;;4916670;29;20460;-75
2022/08/27 04:56:51;;;;;;;1.33;0.20;;;19.40;99.90;;;;;;4914076;29;20036;-75
2022/08/27 04:59:18;;;;;;;0.22;0.10;;;19.50;99.90;;;;;;4916513;29;20027;-74
2022/08/27 05:01:47;;;;;;;1.92;0.22;;;19.30;99.90;;;;;;4914594;29;20463;-73
2022/08/27 05:04:17;;;;;;;0.70;0.10;;;19.10;99.90;;;;;;4916144;29;20429;-74
2022/08/27 05:06:45;;;;;;;2.45;0.73;;;18.80;99.90;;;;;;4914602;29;20046;-75
2022/08/27 05:09:15;;;;;;;1.55;0.20;;;18.50;99.90;;;;;;4916078;29;20108;-75
2022/08/27 05:11:43;;;;;;;0.30;0.20;;;18.30;99.90;;;;;;4914229;29;20154;-75
2022/08/27 05:14:13;;;;;;;3.53;0.60;;;18.00;99.90;;;;;;4915906;29;20087;-74
2022/08/27 05:16:41;;;;;;;0.55;0.20;;;17.90;99.90;;;;;;4914100;29;20064;-75
2022/08/27 05:19:13;;;;;;;0.15;0.08;;;17.80;99.90;;;;;;4916733;29;20420;-73
2022/08/27 05:21:46;;;;;;;0.70;0.20;;;17.70;99.90;;;;;;4912337;29;20483;-75
2022/08/27 05:24:14;;;;;;;0.60;0.20;;;17.70;99.90;;;;;;4915616;29;20099;-75
2022/08/27 05:26:42;;;;;;;0.85;0.47;;;17.50;99.90;;;;;;4899988;29;20037;-75
2022/08/27 05:29:10;;;;;;;1.23;0.30;;;17.60;99.90;;;;;;4901168;29;20039;-75
2022/08/27 05:31:38;;;;;;;1.30;0.40;;;17.50;99.90;;;;;;4914166;29;20082;-75
2022/08/27 05:34:06;;;;;;;1.27;0.30;;;17.40;99.90;;;;;;4915643;29;20016;-75
2022/08/27 05:36:35;;;;;;;0.70;0.20;;;17.40;99.90;;;;;;4914090;29;20403;-74
2022/08/27 05:39:05;;;;;;;0.70;0.30;;;17.40;99.90;;;;;;4915262;29;20036;-75
2022/08/27 05:41:33;;;;;;;2.17;0.28;;;17.30;99.90;;;;;;4913944;29;20036;-75
2022/08/27 05:44:04;;;;;;;1.50;0.30;;;17.30;99.90;;;;;;4915304;29;20036;-73
2022/08/27 05:46:32;;;;;;;1.45;0.10;;;17.40;99.90;;;;;;4913757;29;20135;-75
2022/08/27 05:49:00;;;;;;;0.77;0.10;;;17.40;99.90;;;;;;4915375;29;20357;-74
2022/08/27 05:51:31;;;;;;;0.50;0.20;;;17.40;99.90;;;;;;4913645;29;20044;-73
2022/08/27 05:54:05;;;;;;;0.47;0.10;;;17.30;99.90;;;;;;4914569;29;20471;-73
2022/08/27 05:56:35;;;;;;;0.40;0.20;;;17.30;99.90;;;;;;4913591;29;20408;-74
2022/08/27 06:01:52;;;;;;;2.63;0.10;;;17.30;99.90;;;;;;4898355;29;20084;-75
2022/08/27 06:04:20;;;;;;;1.38;0.65;;;17.20;99.90;;;;;;4896106;29;20028;-74
2022/08/27 06:06:49;;;;;;;0.75;0.47;;;17.40;99.90;;;;;;4910492;29;20028;-74
2022/08/27 06:09:20;;;;;;;2.80;0.73;;;17.40;99.90;;;;;;4915214;29;20178;-75
2022/08/27 06:11:48;;;;;;;0.90;0.38;;;17.60;99.90;;;;;;4911033;29;20036;-74
2022/08/27 06:14:16;;;;;;;1.55;0.30;;;17.70;99.90;;;;;;4914617;29;20519;-74
2022/08/27 06:16:43;;;;;;;1.85;1.02;;;17.70;99.90;;;;;;4913195;29;20112;-75
2022/08/27 06:19:11;;;;;;;0.55;0.20;;;17.90;99.90;;;;;;4915215;29;20028;-75
2022/08/27 06:21:40;;;;;;;1.20;0.30;;;18.10;99.90;;;;;;4910049;29;20494;-75
2022/08/27 06:24:11;;;;;;;0.50;0.45;;;18.20;99.90;;;;;;4914215;29;20119;-75
2022/08/27 06:26:41;;;;;;;1.58;0.22;;;18.10;99.90;;;;;;4911271;29;20175;-75
2022/08/27 06:29:08;;;;;;;0.65;0.30;;;17.90;99.90;;;;;;4914650;29;20578;-75
2022/08/27 06:31:37;;;;;;;0.65;0.13;;;17.70;99.90;;;;;;4912588;29;20136;-74
2022/08/27 06:34:06;;;;;;;0.50;0.20;;;17.50;99.90;;;;;;4914210;29;20340;-74
2022/08/27 06:36:39;;;;;;;0.63;0.63;;;17.30;99.90;;;;;;4912893;29;20391;-74
2022/08/27 06:39:07;;;;;;;1.00;0.38;;;17.20;99.90;;;;;;4914285;29;20047;-75
2022/08/27 06:41:35;;;;;;;2.38;0.30;;;17.00;99.90;;;;;;4913071;29;20103;-74
2022/08/27 06:44:03;;;;;;;1.23;0.60;;;16.90;99.90;;;;;;4914161;29;20035;-74
2022/08/27 06:46:31;;;;;;;2.17;0.40;;;16.80;99.90;;;;;;4912996;29;20191;-74
2022/08/27 06:49:00;;;;;;;1.85;0.30;;;16.80;99.90;;;;;;4914265;29;20388;-75
2022/08/27 06:51:30;;;;;;;1.60;0.50;;;16.70;99.90;;;;;;4912125;29;20470;-74
2022/08/27 06:54:02;;;;;;;0.68;0.65;;;16.60;99.90;;;;;;4914157;29;20436;-73
2022/08/27 06:56:30;;;;;;;1.15;0.63;;;16.60;99.90;;;;;;4912778;29;20039;-74
2022/08/27 06:59:01;;;;;;;0.75;0.38;;;16.60;99.90;;;;;;4914254;29;20039;-74
2022/08/27 07:01:32;;;;;;;0.70;0.30;;;16.60;99.90;;;;;;4917109;29;20071;-75
2022/08/27 07:04:02;;;;;;;2.13;0.38;;;16.50;99.90;;;;;;4914180;29;20057;-76
2022/08/27 07:06:31;;;;;;;1.48;0.50;;;16.40;99.90;;;;;;4912652;29;20044;-76
2022/08/27 07:08:59;;;;;;;9.05;5.15;;;16.40;99.90;;;;;;4913325;29;20150;-75
2022/08/27 07:11:31;;;;;;;36.22;18.77;;;16.40;99.90;;;;;;4911940;29;20044;-73
2022/08/27 07:13:58;;;;;;;3.25;1.88;;;16.30;99.90;;;;;;4914050;29;20024;-75
2022/08/27 07:16:28;;;;;;;2.60;0.68;;;16.30;99.90;;;;;;4909706;29;20674;-75
2022/08/27 07:18:58;;;;;;;0.80;0.60;;;16.20;99.90;;;;;;4912992;29;20048;-74
2022/08/27 07:21:26;;;;;;;0.77;0.40;;;16.10;99.90;;;;;;4911989;29;20050;-74
2022/08/27 07:23:58;;;;;;;2.70;0.73;;;16.10;99.90;;;;;;4913979;29;20032;-75
2022/08/27 07:26:26;;;;;;;1.42;0.47;;;16.00;99.90;;;;;;4884303;29;20480;-75
2022/08/27 07:28:53;;;;;;;0.90;0.50;;;15.90;99.90;;;;;;4895409;29;20507;-74
2022/08/27 07:31:22;;;;;;;1.17;0.70;;;15.80;99.90;;;;;;4907538;29;20102;-73
2022/08/27 07:33:50;;;;;;;4.68;0.52;;;15.70;99.90;;;;;;4902566;29;20032;-75
2022/08/27 07:36:18;;;;;;;1.67;1.08;;;15.60;99.90;;;;;;4901745;29;20119;-76
2022/08/27 07:38:46;;;;;;;1.42;0.30;;;15.50;99.90;;;;;;4894762;29;20368;-73
2022/08/27 07:41:14;;;;;;;2.10;0.43;;;15.40;99.90;;;;;;4904962;29;20482;-74
2022/08/27 07:46:27;;;;;;;0.73;0.52;;;15.10;99.90;;;;;;4912036;29;20051;-73
2022/08/27 07:48:56;;;;;;;1.27;0.68;;;15.00;99.90;;;;;;4909165;29;20116;-75
2022/08/27 07:51:25;;;;;;;1.60;0.40;;;14.80;99.90;;;;;;4906252;29;20052;-74
2022/08/27 07:53:53;;;;;;;0.38;0.20;;;14.80;99.90;;;;;;4913494;29;20326;-73
2022/08/27 07:56:21;;;;;;;0.55;0.20;;;14.70;99.90;;;;;;4912371;29;20107;-74
2022/08/27 07:58:49;;;;;;;1.15;0.30;;;14.60;99.90;;;;;;4913508;29;20031;-76
2022/08/27 08:01:18;;;;;;;1.95;1.02;;;14.50;99.90;;;;;;4901790;29;20067;-74
2022/08/27 08:03:45;;;;;;;3.30;2.50;;;14.40;99.90;;;;;;4910574;29;20040;-75
2022/08/27 08:06:15;;;;;;;3.72;2.92;;;14.40;99.90;;;;;;4912171;29;20040;-75
2022/08/27 08:08:44;;;;;;;3.95;3.45;;;14.40;99.90;;;;;;4913797;29;20060;-74
2022/08/27 08:11:16;;;;;;;4.20;3.35;;;14.30;99.90;;;;;;4911366;29;20040;-74
2022/08/27 08:13:46;;;;;;;8.23;4.43;;;14.20;99.90;;;;;;4913457;29;20040;-74
2022/08/27 08:16:14;;;;;;;7.40;5.07;;;14.20;99.90;;;;;;4906520;29;20056;-74
2022/08/27 08:18:42;;;;;;;4.55;4.07;;;14.20;99.90;;;;;;4894534;29;20029;-75
2022/08/27 08:21:14;;;;;;;4.68;2.90;;;14.20;99.90;;;;;;4904193;29;20112;-75
2022/08/27 08:23:42;;;;;;;4.03;2.45;;;14.20;99.90;;;;;;4916826;29;20068;-73
2022/08/27 08:26:11;;;;;;;6.03;3.42;;;14.00;99.90;;;;;;4915412;29;20036;-74
2022/08/27 08:28:39;;;;;;;7.57;4.50;;;14.00;99.90;;;;;;4916682;29;20024;-75
2022/08/27 08:31:07;;;;;;;6.38;4.15;;;14.00;99.90;;;;;;4915224;29;20168;-73
2022/08/27 08:33:35;;;;;;;12.32;9.30;;;13.90;99.90;;;;;;4916737;29;20035;-73
2022/08/27 08:36:10;;;;;;;12.13;9.25;;;13.90;99.90;;;;;;4914729;29;20623;-74
2022/08/27 08:38:38;;;;;;;4.13;3.72;;;13.80;99.90;;;;;;4916331;29;20032;-75
2022/08/27 08:41:19;;;;;;;4.90;3.25;;;13.70;99.90;;;;;;4914816;29;20408;-74
2022/08/27 08:43:50;;;;;;;5.45;2.58;;;13.60;99.90;;;;;;4916336;29;20156;-74
2022/08/27 08:46:24;;;;;;;3.40;3.10;;;13.50;99.90;;;;;;4914199;29;20040;-75
2022/08/27 08:48:56;;;;;;;4.35;3.70;;;13.50;99.90;;;;;;4916359;29;20025;-74
2022/08/27 08:51:36;;;;;;;2.28;1.80;;;13.40;99.90;;;;;;4914721;29;20583;-74
2022/08/27 08:54:29;;;;;;;2.22;1.65;;;13.40;99.90;;;;;;4915039;29;20032;-74
2022/08/27 08:57:26;;;;;;;3.92;1.80;;;13.30;99.90;;;;;;4913214;29;20051;-76
2022/08/27 09:00:12;;;;;;;1.02;0.85;;;13.20;99.90;;;;;;4917445;29;20506;-76
2022/08/27 09:02:43;;;;;;;1.00;0.80;;;13.20;99.90;;;;;;4897593;29;20404;-76
2022/08/27 09:05:10;;;;;;;1.45;0.90;;;13.10;99.90;;;;;;4899302;29;20044;-76
2022/08/27 09:08:07;;;;;;;1.85;1.10;;;13.00;99.90;;;;;;4915906;29;20025;-75
2022/08/27 09:10:49;;;;;;;1.05;0.70;;;13.00;99.90;;;;;;4914402;29;20095;-74
2022/08/27 09:13:47;;;;;;;1.10;0.65;;;12.90;99.90;;;;;;4916227;29;20028;-78
2022/08/27 09:16:14;;;;;;;2.17;1.02;;;12.80;99.90;;;;;;4908540;29;20487;-77
2022/08/27 09:18:44;;;;;;;1.58;1.08;;;12.80;99.90;;;;;;4897414;29;20028;-76
2022/08/27 09:21:20;;;;;;;3.55;1.17;;;12.70;99.90;;;;;;4906950;29;20048;-76
2022/08/27 09:24:07;;;;;;;3.03;2.67;;;12.70;99.90;;;;;;4916086;29;20058;-77
2022/08/27 09:26:39;;;;;;;6.18;3.83;;;12.70;99.90;;;;;;4913905;29;20048;-78
2022/08/27 09:29:18;;;;;;;6.30;5.80;;;12.60;99.90;;;;;;4916387;29;20079;-75
2022/08/27 09:31:57;;;;;;;7.30;4.50;;;12.60;99.90;;;;;;4910917;29;20055;-76
2022/08/27 09:34:27;;;;;;;5.85;5.35;;;12.50;99.90;;;;;;4916300;29;20029;-76
2022/08/27 09:37:04;;;;;;;5.10;4.70;;;12.50;99.90;;;;;;4900310;29;20044;-76
2022/08/27 09:40:00;;;;;;;5.65;5.15;;;12.50;99.90;;;;;;4896852;29;20040;-76
2022/08/27 09:42:49;;;;;;;4.57;3.63;;;12.50;99.90;;;;;;4896816;29;20035;-76
2022/08/27 09:45:18;;;;;;;1.75;1.42;;;12.40;99.90;;;;;;4906961;29;20291;-76
2022/08/27 09:47:51;;;;;;;3.13;1.10;;;12.40;99.90;;;;;;4916062;29;20020;-76
2022/08/27 09:50:22;;;;;;;1.85;1.45;;;12.40;99.90;;;;;;4914276;29;20059;-76
2022/08/27 09:52:59;;;;;;;6.65;6.05;;;12.30;99.90;;;;;;4915857;29;20486;-76
2022/08/27 09:55:53;;;;;;;7.45;5.82;;;12.30;99.90;;;;;;4913633;29;20036;-77
2022/08/27 09:58:27;;;;;;;7.95;5.75;;;12.30;99.90;;;;;;4915771;29;20472;-76
2022/08/27 10:01:05;;;;;;;14.43;8.85;;;12.30;99.90;;;;;;4913558;29;20068;-77
2022/08/27 10:03:33;;;;;;;9.68;6.95;;;12.30;99.90;;;;;;4915496;29;20024;-76
2022/08/27 10:06:01;;;;;;;13.45;6.70;;;12.30;99.90;;;;;;4913462;29;20471;-75
2022/08/27 10:08:28;;;;;;;10.48;6.35;;;12.30;99.90;;;;;;4915661;29;20059;-77
2022/08/27 10:11:03;;;;;;;7.78;5.30;;;12.30;99.90;;;;;;4913255;29;20135;-76
2022/08/27 10:14:00;;;;;;;6.47;5.23;;;12.30;99.90;;;;;;4914991;29;20529;-76
2022/08/27 10:16:51;;;;;;;7.22;6.05;;;12.30;99.90;;;;;;4866394;29;20044;-76
2022/08/27 10:19:28;;;;;;;7.85;5.55;;;12.40;99.90;;;;;;4896020;29;20081;-76
2022/08/27 10:22:04;;;;;;;8.68;6.22;;;12.40;99.90;;;;;;4911225;29;20450;-76
2022/08/27 10:24:47;;;;;;;12.82;8.40;;;12.40;99.90;;;;;;4915118;29;20043;-77
2022/08/27 10:27:20;;;;;;;22.85;15.60;;;12.50;99.90;;;;;;4913644;29;20179;-76
2022/08/27 10:30:02;;;;;;;45.55;27.00;;;12.50;99.90;;;;;;4913565;29;20032;-76
2022/08/27 10:33:01;;;;;;;30.70;19.33;;;12.50;99.90;;;;;;4896103;29;20107;-76
2022/08/27 10:35:59;;;;;;;23.85;13.52;;;12.50;99.90;;;;;;4900104;29;20047;-76
2022/08/27 10:38:43;;;;;;;18.08;10.73;;;12.50;99.90;;;;;;4911334;29;20036;-76
2022/08/27 10:41:36;;;;;;;21.13;14.18;;;12.60;99.90;;;;;;4913527;29;20062;-76
2022/08/27 10:44:33;;;;;;;27.90;17.30;;;12.60;99.90;;;;;;4913875;29;20056;-77
2022/08/27 10:47:19;;;;;;;;;;;12.60;99.90;;;;;;4899446;29;20032;-77
2022/08/27 10:49:57;;;;;;;13.57;9.70;;;12.60;99.90;;;;;;4895203;29;20037;-77
2022/08/27 10:52:44;;;;;;;17.80;9.68;;;12.60;99.90;;;;;;4895673;29;20035;-77
2022/08/27 10:55:40;;;;;;;12.07;8.10;;;12.60;99.90;;;;;;4897461;29;20048;-76
2022/08/27 10:58:25;;;;;;;8.82;5.65;;;12.50;99.90;;;;;;4914449;29;20028;-76
2022/08/27 11:01:20;;;;;;;5.57;4.53;;;12.50;99.90;;;;;;4895256;29;20044;-76
2022/08/27 11:04:10;;;;;;;5.25;4.57;;;12.50;99.90;;;;;;4895288;29;20028;-77
2022/08/27 11:06:43;;;;;;;6.25;4.30;;;12.50;99.90;;;;;;4908528;29;20225;-76
2022/08/27 11:09:21;;;;;;;4.63;4.13;;;12.40;99.90;;;;;;4912905;29;20083;-77
2022/08/27 11:11:56;;;;;;;5.20;3.88;;;12.30;99.90;;;;;;4912414;29;20455;-76
2022/08/27 11:14:38;;;;;;;5.40;4.45;;;12.30;99.90;;;;;;4915355;29;20081;-76
2022/08/27 11:17:39;;;;;;;4.97;3.88;;;12.20;99.90;;;;;;4911788;29;20341;-77
2022/08/27 11:20:16;;;;;;;6.85;5.45;;;12.20;99.90;;;;;;4906454;29;20041;-77
2022/08/27 11:22:52;;;;;;;6.20;5.13;;;12.10;99.90;;;;;;4910793;29;20040;-77
2022/08/27 11:25:22;;;;;;;8.45;6.60;;;12.10;99.90;;;;;;4913523;29;20028;-77
2022/08/27 11:27:55;;;;;;;11.32;7.95;;;12.20;99.90;;;;;;4914193;29;20029;-77
2022/08/27 11:30:36;;;;;;;12.40;9.68;;;12.20;99.90;;;;;;4909409;29;20038;-78
2022/08/27 11:33:33;;;;;;;14.60;11.43;;;12.30;99.90;;;;;;4910623;29;20032;-74
2022/08/27 11:36:10;;;;;;;9.25;8.27;;;12.20;99.90;;;;;;4902497;29;20170;-74
2022/08/27 11:39:19;;;;;;;9.60;7.93;;;12.30;99.90;;;;;;4914225;29;20053;-76
2022/08/27 11:42:40;;;;;;;13.00;8.18;;;12.30;99.90;;;;;;4909815;29;20044;-74
2022/08/27 11:45:29;;;;;;;9.05;7.18;;;12.20;99.90;;;;;;4817938;29;20152;-78
2022/08/27 11:47:59;;;;;;;14.10;10.38;;;12.20;99.90;;;;;;4818503;29;20064;-76
2022/08/27 11:50:30;;;;;;;11.38;10.07;;;12.10;99.90;;;;;;4881519;29;20491;-75
2022/08/27 11:53:06;;;;;;;10.50;8.50;;;12.10;99.90;;;;;;4913840;29;20029;-78
2022/08/27 11:55:37;;;;;;;9.70;7.78;;;12.10;99.90;;;;;;4913180;29;20029;-75
2022/08/27 11:58:21;;;;;;;10.32;6.60;;;12.10;99.90;;;;;;4916833;29;20032;-74
2022/08/27 12:00:53;;;;;;;16.98;10.20;;;12.10;99.90;;;;;;4915931;29;20036;-77
2022/08/27 12:03:26;;;;;;;15.63;11.75;;;12.10;99.90;;;;;;4917252;29;20031;-75
2022/08/27 12:05:56;;;;;;;13.23;9.90;;;12.10;99.90;;;;;;4915299;29;20055;-75
2022/08/27 12:08:24;;;;;;;17.83;12.63;;;12.10;99.90;;;;;;4916941;29;20432;-76
2022/08/27 12:10:54;;;;;;;12.40;10.45;;;12.10;99.90;;;;;;4915039;29;20080;-75
2022/08/27 12:13:27;;;;;;;11.52;8.75;;;12.00;99.90;;;;;;4917126;29;20024;-76
2022/08/27 12:16:03;;;;;;;7.97;6.05;;;12.00;99.90;;;;;;4914811;29;20503;-74
2022/08/27 12:18:43;;;;;;;7.78;6.90;;;12.00;99.90;;;;;;4917060;29;20079;-74
2022/08/27 12:21:39;;;;;;;8.40;5.88;;;12.00;99.90;;;;;;4915523;29;20040;-73
2022/08/27 12:24:12;;;;;;;6.18;5.10;;;11.90;99.90;;;;;;4904897;29;20063;-76
2022/08/27 12:26:53;;;;;;;8.88;6.72;;;11.80;99.90;;;;;;4912926;29;20032;-75
2022/08/27 12:29:22;;;;;;;8.32;7.13;;;11.80;99.90;;;;;;4916930;29;20107;-75
2022/08/27 12:32:11;;;;;;;11.70;8.75;;;11.70;99.90;;;;;;4900235;29;20052;-75
2022/08/27 12:34:54;;;;;;;10.95;7.80;;;11.60;99.90;;;;;;4896646;29;20064;-75
2022/08/27 12:37:26;;;;;;;8.63;6.70;;;11.60;99.90;;;;;;4897748;29;20045;-74
2022/08/27 12:39:57;;;;;;;9.55;5.50;;;11.50;99.90;;;;;;4902648;29;20024;-74
2022/08/27 12:42:24;;;;;;;6.20;5.07;;;11.50;99.90;;;;;;4897607;29;20144;-74
2022/08/27 12:44:58;;;;;;;9.75;6.65;;;11.50;99.90;;;;;;4897395;29;20025;-74
2022/08/27 12:47:26;;;;;;;8.93;6.32;;;11.60;99.90;;;;;;4915814;29;20040;-74
2022/08/27 12:49:57;;;;;;;7.05;5.32;;;11.60;99.90;;;;;;4914806;29;20024;-74
2022/08/27 12:52:56;;;;;;;6.10;4.40;;;11.60;99.90;;;;;;4897399;29;20484;-75
2022/08/27 12:55:39;;;;;;;5.07;4.32;;;11.60;99.90;;;;;;4900340;29;20071;-74
2022/08/27 12:58:32;;;;;;;6.35;4.60;;;11.60;99.90;;;;;;4916325;29;20020;-74
2022/08/27 13:01:09;;;;;;;7.03;5.43;;;11.60;99.90;;;;;;4901049;29;20123;-74
2022/08/27 13:03:48;;;;;;;6.50;4.88;;;11.60;99.90;;;;;;4916278;29;20427;-75
2022/08/27 13:06:32;;;;;;;10.60;5.53;;;11.50;99.90;;;;;;4914248;29;20103;-74
2022/08/27 13:09:03;;;;;;;7.97;5.90;;;11.60;99.90;;;;;;4915616;29;20521;-75
2022/08/27 13:11:34;;;;;;;9.85;6.20;;;11.60;99.90;;;;;;4914601;29;20044;-74
2022/08/27 13:14:11;;;;;;;9.27;6.57;;;11.70;99.90;;;;;;4916349;29;20031;-74
2022/08/27 13:16:51;;;;;;;8.85;5.97;;;11.70;99.90;;;;;;4913997;29;20032;-75
2022/08/27 13:19:31;;;;;;;8.02;5.63;;;11.60;99.90;;;;;;4915857;29;20052;-74
2022/08/27 13:22:04;;;;;;;12.38;6.40;;;11.60;99.90;;;;;;4913299;29;20507;-75